Time;durP1;ratioP1;P1;durP2;ratioP2;P2;SDS_P1;SDS_P2;PMS_P1;PMS_P2;Temp;Humidity;BMP_temperature;BMP_pressure;BME280_temperature;BME280_humidity;BME280_pressure;Samples;Min_cycle;Max_cycle;Signal;HPM_P1;HPM_P2
2023/09/03 00:00:52;;;;;;;14.70;5.35;;;;;;;14.02;100.00;99805.88;5158629;27;20050;-58
2023/09/03 00:03:18;;;;;;;10.40;4.57;;;;;;;13.94;100.00;99815.22;5158406;27;20053;-61
2023/09/03 00:05:48;;;;;;;7.93;4.55;;;;;;;13.90;100.00;99814.38;5158537;27;20070;-58
2023/09/03 00:08:14;;;;;;;8.20;5.05;;;;;;;13.85;100.00;99840.28;5158133;27;20369;-58
2023/09/03 00:10:40;;;;;;;11.32;4.80;;;;;;;13.86;100.00;99844.63;5158569;27;20337;-59
2023/09/03 00:13:07;;;;;;;7.78;4.43;;;;;;;13.83;100.00;99855.59;5158193;27;20046;-57
2023/09/03 00:15:33;;;;;;;9.55;4.97;;;;;;;13.79;100.00;99854.72;5158525;27;20050;-59
2023/09/03 00:17:59;;;;;;;7.63;4.63;;;;;;;13.76;100.00;99864.56;5158105;27;20074;-57
2023/09/03 00:20:25;;;;;;;7.18;5.35;;;;;;;13.68;100.00;99878.56;5158483;27;20137;-61
2023/09/03 00:22:51;;;;;;;8.50;4.32;;;;;;;13.63;100.00;99901.72;5157942;27;20058;-60
2023/09/03 00:25:17;;;;;;;8.30;4.45;;;;;;;13.59;100.00;99912.66;5158158;27;20054;-59
2023/09/03 00:27:43;;;;;;;8.07;4.95;;;;;;;13.59;100.00;99920.13;5158449;27;20050;-61
2023/09/03 00:30:10;;;;;;;11.40;5.47;;;;;;;13.52;100.00;99937.31;5158304;27;20097;-61
2023/09/03 00:32:36;;;;;;;7.70;4.55;;;;;;;13.49;100.00;99965.59;5158387;27;20050;-57
2023/09/03 00:35:02;;;;;;;9.27;4.40;;;;;;;13.45;100.00;99964.75;5158007;27;20138;-59
2023/09/03 00:37:28;;;;;;;8.25;4.82;;;;;;;13.49;100.00;99968.34;5158072;27;20082;-60
2023/09/03 00:39:54;;;;;;;6.32;4.88;;;;;;;13.47;100.00;99967.94;5158128;27;20145;-58
2023/09/03 00:42:20;;;;;;;9.48;5.07;;;;;;;13.47;100.00;99973.47;5158075;27;20384;-57
2023/09/03 00:44:46;;;;;;;6.80;4.82;;;;;;;13.45;100.00;99978.53;5157780;27;20070;-60
2023/09/03 00:47:12;;;;;;;8.13;4.68;;;;;;;13.40;100.00;99981.59;5158100;27;20513;-60
2023/09/03 00:49:42;;;;;;;7.70;4.68;;;;;;;13.45;100.00;99983.22;5157617;27;20043;-60
2023/09/03 00:52:10;;;;;;;6.15;4.38;;;;;;;13.39;100.00;99989.06;5157734;27;20057;-58
2023/09/03 00:54:36;;;;;;;8.35;4.88;;;;;;;13.37;100.00;99991.38;5157782;27;20336;-58
2023/09/03 00:57:03;;;;;;;14.50;4.93;;;;;;;13.48;100.00;99988.03;5157787;27;20050;-59
2023/09/03 00:59:31;;;;;;;8.77;4.93;;;;;;;13.38;100.00;99995.69;5160246;27;20083;-60
2023/09/03 01:01:58;;;;;;;10.65;5.38;;;;;;;13.47;100.00;99992.75;5161126;27;20399;-58
2023/09/03 01:04:24;;;;;;;9.10;4.93;;;;;;;13.45;100.00;99999.75;5161326;27;20408;-61
2023/09/03 01:06:51;;;;;;;11.77;4.93;;;;;;;13.44;100.00;100007.22;5161071;27;20145;-60
2023/09/03 01:09:18;;;;;;;7.57;4.55;;;;;;;13.39;100.00;100007.50;5161646;27;20055;-62
2023/09/03 01:11:51;;;;;;;11.35;4.53;;;;;;;13.43;100.00;100013.91;5161127;27;20323;-61
2023/09/03 01:14:28;;;;;;;8.43;4.55;;;;;;;13.42;100.00;100013.09;5161371;27;20137;-61
2023/09/03 01:17:02;;;;;;;13.02;4.60;;;;;;;13.46;100.00;100012.38;5160849;27;20437;-60
2023/09/03 01:19:52;;;;;;;8.63;4.38;;;;;;;13.47;100.00;100013.97;5161185;27;20101;-60
2023/09/03 01:22:32;;;;;;;7.00;4.80;;;;;;;13.46;100.00;100017.88;5161159;27;20134;-60
2023/09/03 01:25:10;;;;;;;8.38;4.70;;;;;;;13.45;100.00;100011.56;5160949;27;20133;-59
2023/09/03 01:27:46;;;;;;;11.93;4.95;;;;;;;13.47;100.00;100016.72;5160646;27;20061;-60
2023/09/03 01:30:14;;;;;;;8.60;4.97;;;;;;;13.48;100.00;100019.13;5160620;27;20106;-61
2023/09/03 01:32:40;;;;;;;7.30;4.43;;;;;;;13.41;100.00;100022.53;5161110;27;20055;-59
2023/09/03 01:35:08;;;;;;;6.70;4.22;;;;;;;13.34;100.00;100027.09;5160887;27;20047;-59
2023/09/03 01:37:34;;;;;;;7.05;4.50;;;;;;;13.39;100.00;100029.53;5160714;27;20050;-58
2023/09/03 01:40:00;;;;;;;8.05;4.80;;;;;;;13.46;100.00;100039.91;5160667;27;20061;-58
2023/09/03 01:42:26;;;;;;;7.20;4.05;;;;;;;13.41;100.00;100039.06;5160924;27;20046;-58
2023/09/03 01:44:52;;;;;;;7.65;4.57;;;;;;;13.42;100.00;100043.38;5160674;27;20073;-58
2023/09/03 01:47:29;;;;;;;8.13;4.32;;;;;;;13.46;100.00;100040.69;5160945;27;20389;-60
2023/09/03 01:50:06;;;;;;;8.75;4.40;;;;;;;13.48;100.00;100035.63;5160733;27;20205;-59
2023/09/03 01:52:38;;;;;;;7.97;4.13;;;;;;;13.42;100.00;100039.84;5160425;27;20054;-60
2023/09/03 01:55:09;;;;;;;7.63;4.22;;;;;;;13.40;100.00;100045.72;5160860;27;20456;-58
2023/09/03 01:57:40;;;;;;;5.95;4.25;;;;;;;13.40;100.00;100037.47;5160492;27;20117;-60
2023/09/03 02:00:11;;;;;;;8.23;4.28;;;;;;;13.28;100.00;100056.88;5160493;27;20110;-60
2023/09/03 02:02:42;;;;;;;8.40;4.40;;;;;;;13.29;100.00;100055.69;5160284;27;20443;-58
2023/09/03 02:05:08;;;;;;;6.40;4.43;;;;;;;13.29;100.00;100060.41;5160227;27;20042;-60
2023/09/03 02:07:34;;;;;;;6.15;4.38;;;;;;;13.30;100.00;100060.06;5160381;27;20109;-58
2023/09/03 02:10:00;;;;;;;4.93;4.03;;;;;;;13.25;100.00;100057.59;5160093;27;20452;-58
2023/09/03 02:12:26;;;;;;;9.02;4.07;;;;;;;13.32;100.00;100062.44;5160490;27;20058;-59
2023/09/03 02:14:52;;;;;;;6.88;4.22;;;;;;;13.29;100.00;100063.16;5160083;27;20062;-60
2023/09/03 02:17:19;;;;;;;4.93;4.10;;;;;;;13.27;100.00;100068.25;5160391;27;20049;-62
2023/09/03 02:19:46;;;;;;;13.57;4.65;;;;;;;13.26;100.00;100070.22;5159969;27;20394;-58
2023/09/03 02:22:12;;;;;;;5.50;4.18;;;;;;;13.29;100.00;100076.94;5159742;27;20046;-60
2023/09/03 02:24:38;;;;;;;7.13;4.65;;;;;;;13.33;100.00;100066.81;5159861;27;20488;-59
2023/09/03 02:27:04;;;;;;;14.30;4.95;;;;;;;13.30;100.00;100071.09;5160062;27;20061;-59
2023/09/03 02:29:30;;;;;;;13.77;5.65;;;;;;;13.30;100.00;100070.28;5159996;27;20065;-60
2023/09/03 02:31:56;;;;;;;6.75;3.83;;;;;;;13.33;100.00;100078.63;5159900;27;20129;-61
2023/09/03 02:34:22;;;;;;;7.85;4.43;;;;;;;13.35;100.00;100072.75;5159869;27;20100;-60
2023/09/03 02:36:48;;;;;;;7.35;4.57;;;;;;;13.32;100.00;100079.78;5159764;27;20085;-62
2023/09/03 02:39:14;;;;;;;5.82;4.13;;;;;;;13.33;100.00;100081.38;5159965;27;20196;-61
2023/09/03 02:41:40;;;;;;;9.05;4.20;;;;;;;13.33;100.00;100080.59;5159643;27;20050;-62
2023/09/03 02:44:09;;;;;;;8.77;4.47;;;;;;;13.36;100.00;100083.41;5160010;27;20400;-61
2023/09/03 02:46:35;;;;;;;7.47;4.78;;;;;;;13.34;100.00;100082.19;5159502;27;20047;-60
2023/09/03 02:49:01;;;;;;;15.27;5.40;;;;;;;13.41;100.00;100085.88;5160084;27;20046;-57
2023/09/03 02:51:27;;;;;;;7.43;4.38;;;;;;;13.46;100.00;100083.97;5159354;27;20146;-58
2023/09/03 02:53:54;;;;;;;11.30;4.03;;;;;;;13.39;100.00;100084.63;5159758;27;20050;-59
2023/09/03 02:56:22;;;;;;;7.18;4.38;;;;;;;13.63;100.00;100075.31;5159375;27;20050;-60
2023/09/03 02:58:48;;;;;;;5.85;3.85;;;;;;;13.61;100.00;100085.88;5159525;27;20137;-60
2023/09/03 03:01:15;;;;;;;4.10;3.70;;;;;;;13.74;100.00;100083.78;5159563;27;20085;-58
2023/09/03 03:03:42;;;;;;;6.32;3.95;;;;;;;13.79;100.00;100081.50;5159364;27;20050;-59
2023/09/03 03:06:08;;;;;;;9.90;4.55;;;;;;;13.75;100.00;100080.66;5159595;27;20057;-59
2023/09/03 03:08:34;;;;;;;7.30;3.78;;;;;;;13.95;100.00;100080.63;5159046;27;20046;-59
2023/09/03 03:11:07;;;;;;;9.07;3.50;;;;;;;14.04;100.00;100086.72;5159587;27;20404;-58
2023/09/03 03:13:34;;;;;;;8.50;4.38;;;;;;;14.10;100.00;100074.22;5158962;27;20050;-61
2023/09/03 03:16:05;;;;;;;5.78;3.70;;;;;;;14.13;100.00;100074.28;5159511;27;20058;-59
2023/09/03 03:18:31;;;;;;;4.45;3.58;;;;;;;14.15;100.00;100065.63;5158910;27;20062;-59
2023/09/03 03:21:04;;;;;;;5.20;3.28;;;;;;;14.07;100.00;100061.16;5158501;27;20058;-61
2023/09/03 03:23:30;;;;;;;4.45;3.40;;;;;;;13.96;100.00;100074.78;5158928;27;20050;-58
2023/09/03 03:25:56;;;;;;;5.07;3.13;;;;;;;14.04;100.00;100081.19;5158914;27;20078;-58
2023/09/03 03:28:23;;;;;;;6.00;3.33;;;;;;;13.94;100.00;100084.56;5159105;27;20138;-59
2023/09/03 03:30:49;;;;;;;10.82;3.63;;;;;;;14.13;100.00;100082.56;5158746;27;20057;-60
2023/09/03 03:33:14;;;;;;;5.82;3.70;;;;;;;14.07;100.00;100080.47;5159012;27;20141;-60
2023/09/03 03:35:41;;;;;;;8.20;3.35;;;;;;;14.05;100.00;100077.28;5158749;27;20150;-60
2023/09/03 03:38:07;;;;;;;5.80;3.63;;;;;;;14.17;100.00;100079.06;5159025;27;20050;-58
2023/09/03 03:40:33;;;;;;;4.82;3.70;;;;;;;14.27;100.00;100073.75;5158635;27;20336;-59
2023/09/03 03:42:58;;;;;;;5.00;3.50;;;;;;;14.25;100.00;100080.78;5159120;27;20363;-60
2023/09/03 03:45:25;;;;;;;6.40;3.28;;;;;;;14.46;100.00;100077.59;5158450;27;20089;-62
2023/09/03 03:47:51;;;;;;;6.97;3.30;;;;;;;14.51;100.00;100074.56;5158805;27;20355;-62
2023/09/03 03:50:17;;;;;;;6.80;3.35;;;;;;;14.51;100.00;100080.06;5158665;27;20093;-62
2023/09/03 03:52:43;;;;;;;6.30;3.60;;;;;;;14.48;100.00;100073.28;5158636;27;20137;-62
2023/09/03 03:55:11;;;;;;;4.00;3.03;;;;;;;14.48;100.00;100073.28;5158610;27;20641;-62
2023/09/03 03:57:37;;;;;;;6.97;3.65;;;;;;;14.58;100.00;100064.41;5158553;27;20055;-59
2023/09/03 04:00:03;;;;;;;7.85;3.13;;;;;;;14.56;100.00;100065.97;5158711;27;20080;-60
2023/09/03 04:02:30;;;;;;;5.45;3.67;;;;;;;14.71;100.00;100067.78;5158494;27;20121;-61
2023/09/03 04:04:56;;;;;;;4.32;2.78;;;;;;;14.72;100.00;100060.28;5158547;27;20133;-58
2023/09/03 04:07:22;;;;;;;7.57;3.28;;;;;;;14.89;100.00;100051.47;5158348;27;20199;-60
2023/09/03 04:09:48;;;;;;;6.53;3.58;;;;;;;14.83;100.00;100034.47;5158476;27;20388;-60
2023/09/03 04:12:14;;;;;;;8.18;4.00;;;;;;;14.90;100.00;100033.78;5158130;27;20067;-60
2023/09/03 04:14:40;;;;;;;7.38;3.47;;;;;;;15.00;100.00;100024.84;5158540;27;20050;-60
2023/09/03 04:17:06;;;;;;;3.65;3.20;;;;;;;15.03;100.00;100012.25;5158332;27;20129;-60
2023/09/03 04:19:33;;;;;;;3.75;3.30;;;;;;;15.10;100.00;100000.50;5157966;27;20054;-60
2023/09/03 04:21:59;;;;;;;3.85;3.00;;;;;;;15.16;100.00;99991.50;5158329;27;20046;-61
2023/09/03 04:24:25;;;;;;;5.00;3.60;;;;;;;15.12;100.00;99984.34;5157960;27;20051;-57
2023/09/03 04:26:51;;;;;;;10.82;3.80;;;;;;;15.07;100.00;99994.56;5158196;27;20134;-58
2023/09/03 04:29:17;;;;;;;11.27;3.22;;;;;;;15.13;100.00;100008.84;5158024;27;20158;-59
2023/09/03 04:31:43;;;;;;;3.58;3.00;;;;;;;15.15;100.00;99997.41;5158302;27;20046;-60
2023/09/03 04:34:09;;;;;;;3.65;3.30;;;;;;;15.22;100.00;99994.72;5159922;27;20082;-59
2023/09/03 04:36:36;;;;;;;6.13;3.45;;;;;;;15.18;100.00;100002.97;5162023;27;20051;-59
2023/09/03 04:39:03;;;;;;;4.30;3.22;;;;;;;15.25;100.00;100014.09;5161508;27;20051;-61
2023/09/03 04:41:29;;;;;;;4.28;2.97;;;;;;;15.37;100.00;100004.00;5161950;27;20384;-60
2023/09/03 04:44:06;;;;;;;6.43;3.10;;;;;;;15.37;100.00;100007.53;5161571;27;20093;-59
2023/09/03 04:46:32;;;;;;;5.53;3.13;;;;;;;15.48;100.00;99991.09;5161382;27;20376;-59
2023/09/03 04:48:58;;;;;;;4.70;3.35;;;;;;;15.41;100.00;99969.69;5161358;27;20057;-59
2023/09/03 04:51:24;;;;;;;4.53;3.10;;;;;;;15.41;100.00;99946.81;5161523;27;20138;-60
2023/09/03 04:53:50;;;;;;;4.65;2.80;;;;;;;15.60;100.00;99943.06;5161504;27;20051;-61
2023/09/03 04:56:16;;;;;;;5.00;3.28;;;;;;;15.35;100.00;99918.72;5161344;27;20043;-60
2023/09/03 04:58:42;;;;;;;3.50;2.90;;;;;;;15.41;100.00;99933.78;5161499;27;20444;-60
2023/09/03 05:01:14;;;;;;;4.40;3.10;;;;;;;15.29;100.00;99929.31;5161261;27;20089;-61
2023/09/03 05:03:40;;;;;;;3.85;3.38;;;;;;;15.65;100.00;99918.59;5161500;27;20312;-60
2023/09/03 05:06:06;;;;;;;3.60;2.88;;;;;;;15.87;100.00;99872.63;5161152;27;20108;-58
2023/09/03 05:08:32;;;;;;;4.00;3.10;;;;;;;15.94;100.00;99811.84;5161383;27;20047;-58
2023/09/03 05:11:07;;;;;;;4.57;3.13;;;;;;;16.08;100.00;99755.03;5160931;27;20065;-59
2023/09/03 05:13:33;;;;;;;9.10;3.42;;;;;;;16.21;100.00;99729.41;5161185;27;20119;-58
2023/09/03 05:16:00;;;;;;;4.65;3.42;;;;;;;16.27;100.00;99660.66;5160997;27;20366;-58
2023/09/03 05:18:25;;;;;;;9.95;3.42;;;;;;;16.51;100.00;99600.22;5161131;27;20085;-60
2023/09/03 05:20:51;;;;;;;5.00;2.85;;;;;;;16.60;100.00;99537.75;5161187;27;20125;-60
2023/09/03 05:23:17;;;;;;;3.35;2.85;;;;;;;16.74;100.00;99514.81;5160812;27;20141;-60
2023/09/03 05:25:43;;;;;;;3.45;2.83;;;;;;;16.85;100.00;99440.03;5161176;27;20062;-60
2023/09/03 05:28:10;;;;;;;6.80;3.47;;;;;;;17.01;100.00;99368.38;5161124;27;20432;-60
2023/09/03 05:30:35;;;;;;;3.78;3.17;;;;;;;17.04;100.00;99297.56;5160335;27;20446;-61
2023/09/03 05:33:01;;;;;;;4.45;2.58;;;;;;;16.97;100.00;99211.75;5160475;27;20046;-61
2023/09/03 05:35:27;;;;;;;7.10;2.67;;;;;;;17.35;100.00;99199.53;5161064;27;20180;-61
2023/09/03 05:37:53;;;;;;;3.15;2.95;;;;;;;17.50;100.00;99089.34;5160542;27;20078;-60
2023/09/03 05:40:19;;;;;;;3.17;2.47;;;;;;;17.54;100.00;99020.78;5160515;27;20082;-60
2023/09/03 05:42:45;;;;;;;2.72;2.47;;;;;;;17.60;100.00;98998.97;5160997;27;20138;-59
2023/09/03 05:45:12;;;;;;;2.95;2.10;;;;;;;17.78;100.00;98965.47;5160122;27;20050;-59
2023/09/03 05:47:38;;;;;;;3.15;2.47;;;;;;;17.70;100.00;98889.91;5160879;27;20115;-59
2023/09/03 05:50:05;;;;;;;3.17;2.40;;;;;;;18.10;100.00;98865.91;5160361;27;20092;-59
2023/09/03 05:52:31;;;;;;;3.75;2.65;;;;;;;19.10;100.00;98738.19;5160306;27;20092;-60
2023/09/03 05:54:57;;;;;;;2.88;2.10;;;;;;;20.27;100.00;98650.09;5160215;27;20145;-61
2023/09/03 05:57:23;;;;;;;3.80;2.88;;;;;;;20.42;100.00;98687.41;5160604;27;20054;-60
2023/09/03 05:59:50;;;;;;;9.02;3.22;;;;;;;20.94;100.00;98773.88;5160103;27;20062;-58
2023/09/03 06:02:16;;;;;;;2.90;2.03;;;;;;;21.83;100.00;98860.31;5160401;27;20058;-59
2023/09/03 06:04:42;;;;;;;3.65;2.17;;;;;;;22.57;100.00;99009.09;5160149;27;20043;-59
2023/09/03 06:07:09;;;;;;;7.32;2.40;;;;;;;23.01;100.00;99093.84;5160522;27;20098;-59
2023/09/03 06:09:35;;;;;;;6.00;2.17;;;;;;;23.49;100.00;99114.94;5159828;27;20420;-60
2023/09/03 06:12:01;;;;;;;2.45;1.77;;;;;;;24.03;100.00;99219.44;5160236;27;20119;-61
2023/09/03 06:14:27;;;;;;;3.58;2.53;;;;;;;24.14;100.00;99235.84;5160265;27;20084;-61
2023/09/03 06:16:54;;;;;;;2.63;2.42;;;;;;;23.94;100.00;99244.53;5160091;27;20451;-61
2023/09/03 06:19:22;;;;;;;4.35;2.08;;;;;;;24.02;100.00;99256.28;5160051;27;20392;-60
2023/09/03 06:21:47;;;;;;;5.30;2.15;;;;;;;24.47;100.00;99249.47;5159962;27;20047;-61
2023/09/03 06:24:15;;;;;;;1.85;1.73;;;;;;;24.33;100.00;99270.38;5160190;27;20404;-61
2023/09/03 06:26:41;;;;;;;3.75;1.88;;;;;;;24.60;100.00;99307.00;5159935;27;20065;-59
2023/09/03 06:29:07;;;;;;;2.17;1.67;;;;;;;25.24;100.00;99325.44;5160124;27;20088;-61
2023/09/03 06:31:33;;;;;;;4.15;1.85;;;;;;;25.34;100.00;99324.25;5159771;27;20472;-62
2023/09/03 06:33:59;;;;;;;3.25;1.98;;;;;;;25.37;100.00;99328.16;5160172;27;20096;-62
2023/09/03 06:36:25;;;;;;;5.60;2.72;;;;;;;25.59;100.00;99328.81;5159663;27;20339;-60
2023/09/03 06:38:51;;;;;;;4.95;2.05;;;;;;;25.08;100.00;99334.84;5159662;27;20486;-60
2023/09/03 06:41:17;;;;;;;1.98;1.83;;;;;;;26.25;100.00;99368.59;5159926;27;20093;-60
2023/09/03 06:43:43;;;;;;;2.25;1.65;;;;;;;25.77;100.00;99375.84;5159731;27;20060;-59
2023/09/03 06:46:09;;;;;;;2.45;1.63;;;;;;;26.40;100.00;99374.41;5159765;27;20141;-60
2023/09/03 06:48:35;;;;;;;2.97;1.83;;;;;;;26.62;100.00;99379.09;5159375;27;20062;-62
2023/09/03 06:51:01;;;;;;;2.10;1.73;;;;;;;25.87;100.00;99387.91;5159932;27;20047;-61
2023/09/03 06:53:28;;;;;;;2.03;1.50;;;;;;;24.99;100.00;99360.03;5159506;27;20107;-60
2023/09/03 06:55:54;;;;;;;3.38;2.00;;;;;;;25.83;100.00;99374.03;5158684;27;20047;-59
2023/09/03 06:58:20;;;;;;;4.28;1.70;;;;;;;26.07;100.00;99382.66;5159268;27;20057;-61
2023/09/03 07:00:46;;;;;;;2.45;1.55;;;;;;;26.50;100.00;99383.66;5159566;27;20478;-59
2023/09/03 07:03:12;;;;;;;4.43;1.30;;;;;;;26.63;100.00;99377.88;5159146;27;20053;-62
2023/09/03 07:05:38;;;;;;;4.13;1.90;;;;;;;26.50;100.00;99390.06;5159596;27;20082;-60
2023/09/03 07:08:05;;;;;;;1.15;1.08;;;;;;;25.51;100.00;99387.28;5158978;27;20078;-59
2023/09/03 07:10:33;;;;;;;2.85;1.98;;;;;;;26.59;92.51;99396.91;5158839;27;20053;-60
2023/09/03 07:12:59;;;;;;;2.05;1.30;;;;;;;26.44;98.46;99403.13;5159404;27;20054;-62
2023/09/03 07:15:25;;;;;;;1.40;1.30;;;;;;;26.14;100.00;99390.78;5159400;27;20157;-61
2023/09/03 07:17:51;;;;;;;4.65;1.40;;;;;;;26.51;98.47;99404.88;5159003;27;20511;-60
2023/09/03 07:20:17;;;;;;;2.42;1.45;;;;;;;26.24;83.11;99411.25;5158861;27;20141;-60
2023/09/03 07:22:43;;;;;;;1.38;1.27;;;;;;;26.50;78.62;99417.38;5159212;27;20137;-60
2023/09/03 07:25:09;;;;;;;1.50;1.35;;;;;;;27.75;76.78;99422.16;5159207;27;20341;-62
2023/09/03 07:27:38;;;;;;;1.02;1.00;;;;;;;28.01;70.84;99426.13;5159299;27;20099;-59
2023/09/03 07:30:06;;;;;;;2.60;1.50;;;;;;;26.76;74.17;99426.31;5158732;27;20058;-61
2023/09/03 07:32:32;;;;;;;3.08;1.60;;;;;;;28.41;73.93;99429.81;5159203;27;20129;-60
2023/09/03 07:34:58;;;;;;;2.05;1.60;;;;;;;28.17;73.63;99421.34;5158668;27;20198;-60
2023/09/03 07:37:23;;;;;;;1.60;1.50;;;;;;;27.23;81.40;99419.38;5158958;27;20373;-61
2023/09/03 07:39:49;;;;;;;2.35;1.33;;;;;;;27.13;77.58;99423.47;5158585;27;20047;-62
2023/09/03 07:42:15;;;;;;;1.25;1.15;;;;;;;27.64;79.67;99422.69;5158805;27;20051;-63
2023/09/03 07:44:43;;;;;;;2.67;1.35;;;;;;;28.22;74.29;99426.31;5158673;27;20058;-61
2023/09/03 07:47:09;;;;;;;4.57;1.52;;;;;;;28.23;73.78;99427.88;5158692;27;20054;-62
2023/09/03 07:49:35;;;;;;;1.92;1.50;;;;;;;27.97;69.24;99427.56;5158756;27;20150;-61
2023/09/03 07:52:00;;;;;;;2.63;1.30;;;;;;;27.47;68.38;99427.13;5158650;27;20054;-60
2023/09/03 07:54:26;;;;;;;1.70;1.42;;;;;;;28.70;65.44;99431.94;5158655;27;20053;-59
2023/09/03 07:56:54;;;;;;;1.30;1.20;;;;;;;28.86;65.37;99434.31;5158336;27;20442;-60
2023/09/03 07:59:20;;;;;;;2.65;2.00;;;;;;;29.23;65.81;99437.56;5158830;27;20058;-61
2023/09/03 08:01:47;;;;;;;2.30;1.50;;;;;;;28.80;64.47;99445.47;5158292;27;20141;-59
2023/09/03 08:04:13;;;;;;;1.45;1.35;;;;;;;28.55;68.12;99441.13;5158986;27;20061;-60
2023/09/03 08:06:39;;;;;;;2.47;1.90;;;;;;;28.14;69.07;99434.34;5158401;27;20050;-60
2023/09/03 08:09:05;;;;;;;1.90;1.65;;;;;;;29.37;64.99;99441.66;5158122;27;20047;-60
2023/09/03 08:11:31;;;;;;;1.40;1.20;;;;;;;28.85;62.43;99444.03;5158450;27;20372;-61
2023/09/03 08:13:59;;;;;;;1.98;1.60;;;;;;;27.92;61.17;99445.88;5158396;27;20050;-62
2023/09/03 08:16:25;;;;;;;1.58;1.30;;;;;;;28.87;59.30;99446.38;5158286;27;20051;-62
2023/09/03 08:18:52;;;;;;;2.90;1.70;;;;;;;29.14;59.38;99448.19;5158136;27;20138;-61
2023/09/03 08:21:18;;;;;;;1.50;1.40;;;;;;;29.26;58.40;99445.06;5158391;27;20043;-62
2023/09/03 08:23:43;;;;;;;4.45;1.65;;;;;;;28.88;58.61;99445.88;5157929;27;20054;-60
2023/09/03 08:26:09;;;;;;;1.80;1.60;;;;;;;27.06;61.85;99452.69;5158221;27;20054;-59
2023/09/03 08:28:35;;;;;;;2.08;1.70;;;;;;;29.19;59.77;99455.97;5157939;27;20046;-59
2023/09/03 08:31:02;;;;;;;1.70;1.60;;;;;;;27.86;61.83;99459.09;5158218;27;20062;-61
2023/09/03 08:33:28;;;;;;;1.65;1.55;;;;;;;29.15;60.34;99458.19;5157894;27;20050;-59
2023/09/03 08:35:54;;;;;;;2.45;1.70;;;;;;;29.26;61.03;99456.38;5158131;27;20058;-60
2023/09/03 08:38:20;;;;;;;3.33;1.50;;;;;;;28.92;58.57;99462.63;5157852;27;20046;-60
2023/09/03 08:40:46;;;;;;;1.50;1.40;;;;;;;29.17;57.09;99464.16;5157656;27;20425;-60
2023/09/03 08:43:14;;;;;;;1.50;1.40;;;;;;;29.27;56.51;99459.97;5157732;27;20046;-62
2023/09/03 08:45:46;;;;;;;3.63;1.80;;;;;;;29.45;59.82;99456.94;5157669;27;20066;-61
2023/09/03 08:48:12;;;;;;;3.42;2.00;;;;;;;29.20;58.88;99449.06;5157848;27;20139;-60
2023/09/03 08:50:39;;;;;;;2.10;1.90;;;;;;;29.29;61.11;99455.41;5157671;27;20398;-60
2023/09/03 08:53:06;;;;;;;4.13;1.90;;;;;;;29.27;59.66;99454.31;5157910;27;20057;-62
2023/09/03 08:55:33;;;;;;;1.90;1.75;;;;;;;29.50;57.66;99456.25;5157896;27;20056;-60
2023/09/03 08:57:59;;;;;;;2.83;2.00;;;;;;;29.52;58.71;99447.28;5158032;27;20102;-61
2023/09/03 09:00:25;;;;;;;1.85;1.75;;;;;;;29.78;58.58;99453.91;5157572;27;20047;-61
2023/09/03 09:02:53;;;;;;;1.83;1.70;;;;;;;28.87;60.33;99452.00;5157969;27;20085;-59
2023/09/03 09:05:19;;;;;;;2.80;2.22;;;;;;;29.21;58.26;99457.03;5157700;27;20050;-59
2023/09/03 09:07:47;;;;;;;2.75;1.83;;;;;;;29.68;58.51;99452.47;5157475;27;20368;-62
2023/09/03 09:10:17;;;;;;;3.78;1.45;;;;;;;29.35;57.38;99460.34;5157556;27;20055;-62
2023/09/03 09:12:47;;;;;;;2.72;2.00;;;;;;;29.50;56.01;99455.47;5157178;27;20060;-62
2023/09/03 09:15:13;;;;;;;2.83;2.00;;;;;;;29.52;55.46;99456.56;5157624;27;20133;-62
2023/09/03 09:17:41;;;;;;;2.15;1.77;;;;;;;29.26;53.60;99449.94;5157394;27;20062;-62
2023/09/03 09:20:08;;;;;;;2.35;2.03;;;;;;;28.69;55.29;99448.09;5159436;27;20137;-59
2023/09/03 09:22:42;;;;;;;3.30;1.48;;;;;;;28.75;55.09;99457.41;5160706;27;20420;-59
2023/09/03 09:25:08;;;;;;;;;;;;;;;29.24;55.98;99447.59;5161705;27;20142;-59
2023/09/03 09:27:36;;;;;;;2.38;1.60;;;;;;;29.44;54.88;99458.22;5160926;27;20030;-61
2023/09/03 09:30:09;;;;;;;1.33;1.23;;;;;;;29.26;56.82;99456.38;5160755;27;20042;-60
2023/09/03 09:32:35;;;;;;;1.98;1.60;;;;;;;29.08;55.14;99459.38;5160904;27;20311;-62
2023/09/03 09:35:01;;;;;;;2.03;1.77;;;;;;;28.94;55.70;99458.06;5160812;27;20046;-62
2023/09/03 09:37:37;;;;;;;3.75;1.70;;;;;;;28.33;54.86;99451.94;5160722;27;20179;-62
2023/09/03 09:40:04;;;;;;;5.80;1.75;;;;;;;27.38;55.50;99451.22;5160644;27;20050;-59
2023/09/03 09:42:30;;;;;;;1.52;1.42;;;;;;;28.97;52.93;99451.44;5160717;27;20411;-59
2023/09/03 09:44:59;;;;;;;1.73;1.40;;;;;;;28.13;54.01;99447.66;5160519;27;20042;-61
2023/09/03 09:47:25;;;;;;;1.67;1.58;;;;;;;27.36;58.18;99448.13;5160884;27;20058;-60
2023/09/03 09:49:51;;;;;;;2.78;1.77;;;;;;;26.64;64.35;99444.88;5160261;27;20046;-62
2023/09/03 09:52:19;;;;;;;2.08;1.60;;;;;;;26.04;71.99;99446.16;5160794;27;20312;-62
2023/09/03 09:54:46;;;;;;;2.17;1.98;;;;;;;25.98;72.29;99445.19;5160261;27;20133;-60
2023/09/03 09:57:14;;;;;;;2.53;2.10;;;;;;;26.41;70.61;99448.28;5160389;27;20137;-59
2023/09/03 09:59:41;;;;;;;2.28;1.88;;;;;;;27.23;64.35;99441.91;5160519;27;20141;-62
2023/09/03 10:02:16;;;;;;;2.03;1.83;;;;;;;27.66;62.24;99443.47;5160283;27;20389;-61
2023/09/03 10:04:43;;;;;;;1.77;1.60;;;;;;;27.81;60.06;99443.59;5160632;27;20057;-60
2023/09/03 10:07:09;;;;;;;2.45;1.70;;;;;;;28.59;60.17;99444.56;5160231;27;20054;-59
2023/09/03 10:09:35;;;;;;;2.45;1.80;;;;;;;28.53;57.96;99449.31;5160369;27;20078;-61
2023/09/03 10:12:02;;;;;;;1.55;1.40;;;;;;;27.52;56.89;99440.53;5159963;27;20324;-59
2023/09/03 10:14:27;;;;;;;1.88;1.70;;;;;;;26.95;58.68;99450.31;5160457;27;20043;-61
2023/09/03 10:16:56;;;;;;;4.15;1.63;;;;;;;26.23;59.71;99449.81;5160012;27;20133;-61
2023/09/03 10:19:25;;;;;;;1.90;1.67;;;;;;;25.65;62.01;99441.31;5160420;27;20069;-61
2023/09/03 10:21:55;;;;;;;1.73;1.55;;;;;;;25.21;63.91;99444.19;5160121;27;20141;-58
2023/09/03 10:24:22;;;;;;;3.25;2.15;;;;;;;24.89;65.39;99444.13;5160092;27;20137;-60
2023/09/03 10:26:53;;;;;;;6.40;1.95;;;;;;;24.99;66.40;99432.94;5160168;27;20328;-60
2023/09/03 10:29:22;;;;;;;4.13;1.80;;;;;;;25.66;58.37;99437.25;5159816;27;20331;-61
2023/09/03 10:31:50;;;;;;;2.60;1.73;;;;;;;26.14;59.84;99434.94;5158803;27;20061;-60
2023/09/03 10:34:16;;;;;;;4.20;1.33;;;;;;;26.27;56.44;99441.22;5159718;27;20061;-60
2023/09/03 10:37:05;;;;;;;1.63;1.50;;;;;;;26.50;54.55;99437.06;5159956;27;20341;-59
2023/09/03 10:39:31;;;;;;;2.67;1.80;;;;;;;26.55;54.96;99428.00;5159480;27;20195;-59
2023/09/03 10:42:26;;;;;;;1.77;1.67;;;;;;;25.69;54.89;99427.91;5159875;27;20042;-60
2023/09/03 10:44:53;;;;;;;1.88;1.77;;;;;;;24.86;56.13;99425.41;5159654;27;20397;-60
2023/09/03 10:47:19;;;;;;;1.85;1.70;;;;;;;25.70;55.69;99433.06;5159653;27;20137;-59
2023/09/03 10:49:47;;;;;;;1.52;1.42;;;;;;;25.57;55.71;99438.78;5159620;27;20133;-62
2023/09/03 10:52:37;;;;;;;1.63;1.52;;;;;;;25.20;58.83;99431.44;5159475;27;20137;-59
2023/09/03 10:55:13;;;;;;;1.70;1.60;;;;;;;25.15;63.90;99434.81;5159927;27;20046;-60
2023/09/03 10:57:39;;;;;;;3.20;1.38;;;;;;;24.93;64.54;99432.78;5159194;27;20056;-60
2023/09/03 11:00:23;;;;;;;4.88;1.50;;;;;;;24.76;69.47;99429.38;5159255;27;20430;-59
2023/09/03 11:02:50;;;;;;;2.38;1.50;;;;;;;24.55;72.16;99427.31;5159523;27;20043;-61
2023/09/03 11:05:20;;;;;;;2.75;1.60;;;;;;;24.22;74.45;99421.22;5159381;27;20083;-58
2023/09/03 11:07:48;;;;;;;1.52;1.30;;;;;;;23.91;75.82;99425.41;5159757;27;20094;-59
2023/09/03 11:10:39;;;;;;;3.13;1.80;;;;;;;23.48;81.22;99412.75;5159119;27;20138;-58
2023/09/03 11:13:09;;;;;;;1.73;1.50;;;;;;;23.35;77.11;99413.97;5158965;27;20056;-60
2023/09/03 11:15:34;;;;;;;3.05;1.90;;;;;;;23.13;80.94;99411.03;5158997;27;20412;-60
2023/09/03 11:18:00;;;;;;;1.70;1.60;;;;;;;23.18;87.73;99400.06;5159225;27;20061;-60
2023/09/03 11:20:28;;;;;;;2.17;1.70;;;;;;;23.44;82.77;99403.69;5159312;27;20050;-60
2023/09/03 11:22:55;;;;;;;1.88;1.63;;;;;;;23.48;70.95;99409.94;5159310;27;20339;-62
2023/09/03 11:25:30;;;;;;;1.65;1.42;;;;;;;23.73;70.26;99416.03;5159018;27;20065;-58
2023/09/03 11:27:56;;;;;;;1.52;1.42;;;;;;;23.70;69.13;99403.72;5159209;27;20111;-60